sensor_id;sensor_type;location;lat;lon;timestamp;P1;durP1;ratioP1;P2;durP2;ratioP2
41661;SDS011;27351;45.992;12.666;2023-04-25T00:02:25;7.80;;;4.97;;
41661;SDS011;27351;45.992;12.666;2023-04-25T00:04:51;7.80;;;4.80;;
41661;SDS011;27351;45.992;12.666;2023-04-25T00:07:17;7.40;;;4.47;;
41661;SDS011;27351;45.992;12.666;2023-04-25T00:09:43;7.68;;;4.70;;
41661;SDS011;27351;45.992;12.666;2023-04-25T00:12:08;7.40;;;4.97;;
41661;SDS011;27351;45.992;12.666;2023-04-25T00:14:34;7.55;;;4.40;;
41661;SDS011;27351;45.992;12.666;2023-04-25T00:17:01;7.20;;;4.65;;
41661;SDS011;27351;45.992;12.666;2023-04-25T00:19:26;7.22;;;4.78;;
41661;SDS011;27351;45.992;12.666;2023-04-25T00:21:56;7.63;;;4.82;;
41661;SDS011;27351;45.992;12.666;2023-04-25T00:24:22;7.85;;;5.00;;
41661;SDS011;27351;45.992;12.666;2023-04-25T00:26:48;7.37;;;4.90;;
41661;SDS011;27351;45.992;12.666;2023-04-25T00:29:14;7.83;;;4.80;;
41661;SDS011;27351;45.992;12.666;2023-04-25T00:31:40;6.90;;;4.78;;
41661;SDS011;27351;45.992;12.666;2023-04-25T00:34:06;7.57;;;4.78;;
41661;SDS011;27351;45.992;12.666;2023-04-25T00:36:31;6.78;;;4.75;;
41661;SDS011;27351;45.992;12.666;2023-04-25T00:38:57;7.50;;;4.75;;
41661;SDS011;27351;45.992;12.666;2023-04-25T00:41:23;7.97;;;4.70;;
41661;SDS011;27351;45.992;12.666;2023-04-25T00:43:50;6.40;;;4.45;;
41661;SDS011;27351;45.992;12.666;2023-04-25T00:46:16;7.40;;;4.20;;
41661;SDS011;27351;45.992;12.666;2023-04-25T00:48:41;7.88;;;4.90;;
41661;SDS011;27351;45.992;12.666;2023-04-25T00:51:07;6.45;;;4.55;;
41661;SDS011;27351;45.992;12.666;2023-04-25T00:53:33;8.50;;;5.22;;
41661;SDS011;27351;45.992;12.666;2023-04-25T00:55:58;7.20;;;5.07;;
41661;SDS011;27351;45.992;12.666;2023-04-25T00:58:24;8.43;;;5.70;;
41661;SDS011;27351;45.992;12.666;2023-04-25T01:00:50;7.85;;;5.57;;
41661;SDS011;27351;45.992;12.666;2023-04-25T01:03:17;7.68;;;4.93;;
41661;SDS011;27351;45.992;12.666;2023-04-25T01:05:44;8.63;;;5.43;;
41661;SDS011;27351;45.992;12.666;2023-04-25T01:08:10;8.30;;;5.07;;
41661;SDS011;27351;45.992;12.666;2023-04-25T01:10:36;7.10;;;5.20;;
41661;SDS011;27351;45.992;12.666;2023-04-25T01:13:02;7.90;;;5.40;;
41661;SDS011;27351;45.992;12.666;2023-04-25T01:15:28;7.78;;;5.07;;
41661;SDS011;27351;45.992;12.666;2023-04-25T01:17:53;7.60;;;5.40;;
41661;SDS011;27351;45.992;12.666;2023-04-25T01:20:20;8.43;;;5.68;;
41661;SDS011;27351;45.992;12.666;2023-04-25T01:22:46;16.15;;;6.00;;
41661;SDS011;27351;45.992;12.666;2023-04-25T01:25:12;14.17;;;6.50;;
41661;SDS011;27351;45.992;12.666;2023-04-25T01:27:38;23.37;;;6.67;;
41661;SDS011;27351;45.992;12.666;2023-04-25T01:30:04;16.95;;;7.43;;
41661;SDS011;27351;45.992;12.666;2023-04-25T01:32:31;28.73;;;6.97;;
41661;SDS011;27351;45.992;12.666;2023-04-25T01:35:07;22.60;;;7.40;;
41661;SDS011;27351;45.992;12.666;2023-04-25T01:37:37;14.68;;;6.50;;
41661;SDS011;27351;45.992;12.666;2023-04-25T01:40:02;15.27;;;5.88;;
41661;SDS011;27351;45.992;12.666;2023-04-25T01:42:31;19.13;;;7.38;;
41661;SDS011;27351;45.992;12.666;2023-04-25T01:44:57;8.75;;;6.28;;
41661;SDS011;27351;45.992;12.666;2023-04-25T01:47:22;10.00;;;6.22;;
41661;SDS011;27351;45.992;12.666;2023-04-25T01:49:48;11.15;;;6.85;;
41661;SDS011;27351;45.992;12.666;2023-04-25T01:52:14;7.90;;;5.70;;
41661;SDS011;27351;45.992;12.666;2023-04-25T01:54:40;7.77;;;5.40;;
41661;SDS011;27351;45.992;12.666;2023-04-25T01:57:12;9.40;;;6.07;;
41661;SDS011;27351;45.992;12.666;2023-04-25T01:59:42;7.73;;;5.13;;
41661;SDS011;27351;45.992;12.666;2023-04-25T02:02:17;7.53;;;4.90;;
41661;SDS011;27351;45.992;12.666;2023-04-25T02:04:43;6.63;;;4.40;;
41661;SDS011;27351;45.992;12.666;2023-04-25T02:07:09;7.70;;;5.20;;
41661;SDS011;27351;45.992;12.666;2023-04-25T02:09:52;7.25;;;4.90;;
41661;SDS011;27351;45.992;12.666;2023-04-25T02:12:21;6.93;;;4.50;;
41661;SDS011;27351;45.992;12.666;2023-04-25T02:15:22;6.78;;;4.38;;
41661;SDS011;27351;45.992;12.666;2023-04-25T02:17:55;7.28;;;4.63;;
41661;SDS011;27351;45.992;12.666;2023-04-25T02:20:21;6.75;;;4.30;;
41661;SDS011;27351;45.992;12.666;2023-04-25T02:22:47;6.50;;;4.10;;
41661;SDS011;27351;45.992;12.666;2023-04-25T02:25:12;6.47;;;4.05;;
41661;SDS011;27351;45.992;12.666;2023-04-25T02:27:38;6.13;;;3.45;;
41661;SDS011;27351;45.992;12.666;2023-04-25T02:30:04;5.53;;;3.20;;
41661;SDS011;27351;45.992;12.666;2023-04-25T02:32:32;6.07;;;3.77;;
41661;SDS011;27351;45.992;12.666;2023-04-25T02:35:00;5.45;;;3.15;;
41661;SDS011;27351;45.992;12.666;2023-04-25T02:37:30;5.15;;;3.08;;
41661;SDS011;27351;45.992;12.666;2023-04-25T02:39:55;4.03;;;2.20;;
41661;SDS011;27351;45.992;12.666;2023-04-25T02:42:29;4.25;;;2.10;;
41661;SDS011;27351;45.992;12.666;2023-04-25T02:44:56;3.40;;;2.03;;
41661;SDS011;27351;45.992;12.666;2023-04-25T02:47:21;3.70;;;2.00;;
41661;SDS011;27351;45.992;12.666;2023-04-25T02:49:48;3.90;;;1.90;;
41661;SDS011;27351;45.992;12.666;2023-04-25T02:52:14;5.65;;;2.00;;
41661;SDS011;27351;45.992;12.666;2023-04-25T02:54:41;3.90;;;1.95;;
41661;SDS011;27351;45.992;12.666;2023-04-25T02:57:06;3.10;;;1.65;;
41661;SDS011;27351;45.992;12.666;2023-04-25T02:59:36;6.90;;;1.80;;
41661;SDS011;27351;45.992;12.666;2023-04-25T03:02:01;3.20;;;1.50;;
41661;SDS011;27351;45.992;12.666;2023-04-25T03:04:27;2.45;;;1.58;;
41661;SDS011;27351;45.992;12.666;2023-04-25T03:06:54;3.03;;;1.50;;
41661;SDS011;27351;45.992;12.666;2023-04-25T03:09:20;2.38;;;1.48;;
41661;SDS011;27351;45.992;12.666;2023-04-25T03:11:46;2.38;;;1.50;;
41661;SDS011;27351;45.992;12.666;2023-04-25T03:14:12;2.75;;;1.60;;
41661;SDS011;27351;45.992;12.666;2023-04-25T03:16:38;5.43;;;2.28;;
41661;SDS011;27351;45.992;12.666;2023-04-25T03:19:04;2.23;;;1.47;;
41661;SDS011;27351;45.992;12.666;2023-04-25T03:21:30;4.22;;;1.55;;
41661;SDS011;27351;45.992;12.666;2023-04-25T03:23:58;3.80;;;1.50;;
41661;SDS011;27351;45.992;12.666;2023-04-25T03:26:24;3.10;;;1.60;;
41661;SDS011;27351;45.992;12.666;2023-04-25T03:28:49;2.40;;;1.10;;
41661;SDS011;27351;45.992;12.666;2023-04-25T03:31:15;2.00;;;1.38;;
41661;SDS011;27351;45.992;12.666;2023-04-25T03:33:41;3.17;;;1.30;;
41661;SDS011;27351;45.992;12.666;2023-04-25T03:36:07;2.35;;;1.50;;
41661;SDS011;27351;45.992;12.666;2023-04-25T03:38:32;1.90;;;1.23;;
41661;SDS011;27351;45.992;12.666;2023-04-25T03:40:58;2.03;;;1.35;;
41661;SDS011;27351;45.992;12.666;2023-04-25T03:43:52;3.50;;;1.67;;
41661;SDS011;27351;45.992;12.666;2023-04-25T03:46:18;2.85;;;1.40;;
41661;SDS011;27351;45.992;12.666;2023-04-25T03:48:45;3.90;;;1.60;;
41661;SDS011;27351;45.992;12.666;2023-04-25T03:51:17;2.75;;;1.67;;
41661;SDS011;27351;45.992;12.666;2023-04-25T03:53:44;2.53;;;1.50;;
41661;SDS011;27351;45.992;12.666;2023-04-25T03:56:18;2.80;;;1.60;;
41661;SDS011;27351;45.992;12.666;2023-04-25T03:58:47;2.67;;;1.50;;
41661;SDS011;27351;45.992;12.666;2023-04-25T04:01:15;2.35;;;1.50;;
41661;SDS011;27351;45.992;12.666;2023-04-25T04:03:41;2.50;;;1.23;;
41661;SDS011;27351;45.992;12.666;2023-04-25T04:06:07;2.97;;;1.50;;
41661;SDS011;27351;45.992;12.666;2023-04-25T04:08:36;2.63;;;1.40;;
41661;SDS011;27351;45.992;12.666;2023-04-25T04:11:02;3.20;;;1.40;;
41661;SDS011;27351;45.992;12.666;2023-04-25T04:13:28;4.90;;;1.67;;
41661;SDS011;27351;45.992;12.666;2023-04-25T04:15:53;2.70;;;1.55;;
41661;SDS011;27351;45.992;12.666;2023-04-25T04:18:19;5.43;;;1.73;;
41661;SDS011;27351;45.992;12.666;2023-04-25T04:20:45;2.70;;;1.60;;
41661;SDS011;27351;45.992;12.666;2023-04-25T04:23:11;2.97;;;1.65;;
41661;SDS011;27351;45.992;12.666;2023-04-25T04:25:36;3.17;;;1.67;;
41661;SDS011;27351;45.992;12.666;2023-04-25T04:28:28;2.33;;;1.30;;
41661;SDS011;27351;45.992;12.666;2023-04-25T04:30:58;2.90;;;1.60;;
41661;SDS011;27351;45.992;12.666;2023-04-25T04:33:24;3.25;;;2.00;;
41661;SDS011;27351;45.992;12.666;2023-04-25T04:35:56;3.90;;;1.65;;
41661;SDS011;27351;45.992;12.666;2023-04-25T04:38:21;3.83;;;1.50;;
41661;SDS011;27351;45.992;12.666;2023-04-25T04:40:47;3.22;;;1.85;;
41661;SDS011;27351;45.992;12.666;2023-04-25T04:43:24;2.70;;;1.57;;
41661;SDS011;27351;45.992;12.666;2023-04-25T04:46:22;3.25;;;1.80;;
41661;SDS011;27351;45.992;12.666;2023-04-25T04:49:10;2.90;;;1.67;;
41661;SDS011;27351;45.992;12.666;2023-04-25T04:52:04;3.30;;;2.10;;
41661;SDS011;27351;45.992;12.666;2023-04-25T04:54:50;3.03;;;1.75;;
41661;SDS011;27351;45.992;12.666;2023-04-25T04:57:39;3.00;;;1.80;;
41661;SDS011;27351;45.992;12.666;2023-04-25T05:00:20;3.33;;;1.88;;
41661;SDS011;27351;45.992;12.666;2023-04-25T05:03:05;4.70;;;1.83;;
41661;SDS011;27351;45.992;12.666;2023-04-25T05:05:41;3.67;;;1.98;;
41661;SDS011;27351;45.992;12.666;2023-04-25T05:08:45;5.18;;;2.58;;
41661;SDS011;27351;45.992;12.666;2023-04-25T05:11:38;4.45;;;1.88;;
41661;SDS011;27351;45.992;12.666;2023-04-25T05:14:22;2.63;;;1.60;;
41661;SDS011;27351;45.992;12.666;2023-04-25T05:17:09;2.53;;;1.35;;
41661;SDS011;27351;45.992;12.666;2023-04-25T05:19:40;4.00;;;1.60;;
41661;SDS011;27351;45.992;12.666;2023-04-25T05:22:38;3.88;;;1.40;;
41661;SDS011;27351;45.992;12.666;2023-04-25T05:25:11;6.18;;;1.42;;
41661;SDS011;27351;45.992;12.666;2023-04-25T05:27:55;2.47;;;1.48;;
41661;SDS011;27351;45.992;12.666;2023-04-25T05:30:42;3.05;;;1.20;;
41661;SDS011;27351;45.992;12.666;2023-04-25T05:33:13;3.67;;;1.42;;
41661;SDS011;27351;45.992;12.666;2023-04-25T05:35:38;2.40;;;1.40;;
41661;SDS011;27351;45.992;12.666;2023-04-25T05:38:04;2.42;;;1.50;;
41661;SDS011;27351;45.992;12.666;2023-04-25T05:40:59;4.13;;;1.88;;
41661;SDS011;27351;45.992;12.666;2023-04-25T05:43:51;2.23;;;1.40;;
41661;SDS011;27351;45.992;12.666;2023-04-25T05:46:24;2.47;;;1.45;;
41661;SDS011;27351;45.992;12.666;2023-04-25T05:49:01;2.88;;;1.70;;
41661;SDS011;27351;45.992;12.666;2023-04-25T05:51:42;3.37;;;1.67;;
41661;SDS011;27351;45.992;12.666;2023-04-25T05:54:26;2.80;;;1.60;;
41661;SDS011;27351;45.992;12.666;2023-04-25T05:56:53;4.13;;;1.60;;
41661;SDS011;27351;45.992;12.666;2023-04-25T05:59:19;4.25;;;1.90;;
41661;SDS011;27351;45.992;12.666;2023-04-25T06:01:45;4.28;;;1.80;;
41661;SDS011;27351;45.992;12.666;2023-04-25T06:04:13;4.05;;;1.67;;
41661;SDS011;27351;45.992;12.666;2023-04-25T06:06:38;3.53;;;1.83;;
41661;SDS011;27351;45.992;12.666;2023-04-25T06:09:04;2.95;;;1.90;;
41661;SDS011;27351;45.992;12.666;2023-04-25T06:11:30;3.10;;;1.90;;
41661;SDS011;27351;45.992;12.666;2023-04-25T06:13:56;3.50;;;1.90;;
41661;SDS011;27351;45.992;12.666;2023-04-25T06:16:22;3.33;;;1.87;;
41661;SDS011;27351;45.992;12.666;2023-04-25T06:18:47;2.90;;;2.00;;
41661;SDS011;27351;45.992;12.666;2023-04-25T06:21:14;3.75;;;2.05;;
41661;SDS011;27351;45.992;12.666;2023-04-25T06:23:40;3.95;;;1.80;;
41661;SDS011;27351;45.992;12.666;2023-04-25T06:26:07;3.15;;;1.70;;
41661;SDS011;27351;45.992;12.666;2023-04-25T06:28:36;3.88;;;1.90;;
41661;SDS011;27351;45.992;12.666;2023-04-25T06:31:01;3.47;;;2.00;;
41661;SDS011;27351;45.992;12.666;2023-04-25T06:33:27;3.65;;;1.85;;
41661;SDS011;27351;45.992;12.666;2023-04-25T06:35:55;4.38;;;1.92;;
41661;SDS011;27351;45.992;12.666;2023-04-25T06:38:24;6.28;;;2.20;;
41661;SDS011;27351;45.992;12.666;2023-04-25T06:40:51;5.35;;;2.70;;
41661;SDS011;27351;45.992;12.666;2023-04-25T06:43:18;5.95;;;2.70;;
41661;SDS011;27351;45.992;12.666;2023-04-25T06:46:02;5.85;;;2.95;;
41661;SDS011;27351;45.992;12.666;2023-04-25T06:48:30;6.28;;;3.00;;
41661;SDS011;27351;45.992;12.666;2023-04-25T06:50:57;6.15;;;2.70;;
41661;SDS011;27351;45.992;12.666;2023-04-25T06:53:24;5.68;;;3.10;;
41661;SDS011;27351;45.992;12.666;2023-04-25T06:55:56;5.60;;;2.97;;
41661;SDS011;27351;45.992;12.666;2023-04-25T06:58:22;6.90;;;3.60;;
41661;SDS011;27351;45.992;12.666;2023-04-25T07:00:48;5.43;;;3.25;;
41661;SDS011;27351;45.992;12.666;2023-04-25T07:03:14;6.93;;;3.55;;
41661;SDS011;27351;45.992;12.666;2023-04-25T07:05:40;6.40;;;3.67;;
41661;SDS011;27351;45.992;12.666;2023-04-25T07:08:06;6.40;;;3.50;;
41661;SDS011;27351;45.992;12.666;2023-04-25T07:10:31;8.17;;;4.33;;
41661;SDS011;27351;45.992;12.666;2023-04-25T07:12:57;8.10;;;4.33;;
41661;SDS011;27351;45.992;12.666;2023-04-25T07:15:23;7.73;;;4.73;;
41661;SDS011;27351;45.992;12.666;2023-04-25T07:17:49;7.30;;;4.43;;
41661;SDS011;27351;45.992;12.666;2023-04-25T07:20:15;7.95;;;4.30;;
41661;SDS011;27351;45.992;12.666;2023-04-25T07:22:41;7.05;;;4.00;;
41661;SDS011;27351;45.992;12.666;2023-04-25T07:25:08;8.27;;;4.85;;
41661;SDS011;27351;45.992;12.666;2023-04-25T07:27:34;7.93;;;5.05;;
41661;SDS011;27351;45.992;12.666;2023-04-25T07:30:26;7.43;;;4.43;;
41661;SDS011;27351;45.992;12.666;2023-04-25T07:32:51;7.77;;;4.77;;
41661;SDS011;27351;45.992;12.666;2023-04-25T07:35:17;9.05;;;5.18;;
41661;SDS011;27351;45.992;12.666;2023-04-25T07:37:43;12.52;;;5.72;;
41661;SDS011;27351;45.992;12.666;2023-04-25T07:40:14;6.97;;;4.60;;
41661;SDS011;27351;45.992;12.666;2023-04-25T07:42:47;8.07;;;4.93;;
41661;SDS011;27351;45.992;12.666;2023-04-25T07:45:17;8.00;;;4.90;;
41661;SDS011;27351;45.992;12.666;2023-04-25T07:47:43;8.10;;;5.20;;
41661;SDS011;27351;45.992;12.666;2023-04-25T07:50:10;9.97;;;5.47;;
41661;SDS011;27351;45.992;12.666;2023-04-25T07:52:36;9.40;;;5.60;;
41661;SDS011;27351;45.992;12.666;2023-04-25T07:55:14;11.13;;;5.90;;
41661;SDS011;27351;45.992;12.666;2023-04-25T07:57:49;8.38;;;5.28;;
41661;SDS011;27351;45.992;12.666;2023-04-25T08:00:15;10.45;;;6.85;;
41661;SDS011;27351;45.992;12.666;2023-04-25T08:02:48;9.15;;;6.03;;
41661;SDS011;27351;45.992;12.666;2023-04-25T08:05:15;10.80;;;6.80;;
41661;SDS011;27351;45.992;12.666;2023-04-25T08:07:44;9.45;;;6.55;;
41661;SDS011;27351;45.992;12.666;2023-04-25T08:10:11;9.70;;;6.30;;
41661;SDS011;27351;45.992;12.666;2023-04-25T08:12:37;9.82;;;6.45;;
41661;SDS011;27351;45.992;12.666;2023-04-25T08:15:03;8.85;;;6.28;;
41661;SDS011;27351;45.992;12.666;2023-04-25T08:17:33;9.53;;;6.30;;
41661;SDS011;27351;45.992;12.666;2023-04-25T08:19:58;9.27;;;6.57;;
41661;SDS011;27351;45.992;12.666;2023-04-25T08:22:30;9.52;;;6.32;;
41661;SDS011;27351;45.992;12.666;2023-04-25T08:25:18;8.50;;;5.80;;
41661;SDS011;27351;45.992;12.666;2023-04-25T08:27:45;9.45;;;5.78;;
41661;SDS011;27351;45.992;12.666;2023-04-25T08:30:11;9.40;;;4.50;;
41661;SDS011;27351;45.992;12.666;2023-04-25T08:32:39;7.03;;;4.40;;
41661;SDS011;27351;45.992;12.666;2023-04-25T08:35:26;6.68;;;4.20;;
41661;SDS011;27351;45.992;12.666;2023-04-25T08:37:51;5.22;;;3.38;;
41661;SDS011;27351;45.992;12.666;2023-04-25T08:40:18;5.65;;;3.10;;
41661;SDS011;27351;45.992;12.666;2023-04-25T08:42:44;4.20;;;2.10;;
41661;SDS011;27351;45.992;12.666;2023-04-25T08:45:12;4.17;;;2.43;;
41661;SDS011;27351;45.992;12.666;2023-04-25T08:47:40;6.30;;;2.60;;
41661;SDS011;27351;45.992;12.666;2023-04-25T08:50:07;5.05;;;2.20;;
41661;SDS011;27351;45.992;12.666;2023-04-25T08:52:37;4.40;;;2.30;;
41661;SDS011;27351;45.992;12.666;2023-04-25T08:55:06;3.87;;;2.27;;
41661;SDS011;27351;45.992;12.666;2023-04-25T08:57:34;5.03;;;2.35;;
41661;SDS011;27351;45.992;12.666;2023-04-25T09:00:01;5.20;;;1.88;;
41661;SDS011;27351;45.992;12.666;2023-04-25T09:02:27;3.35;;;1.70;;
41661;SDS011;27351;45.992;12.666;2023-04-25T09:04:53;3.90;;;2.00;;
41661;SDS011;27351;45.992;12.666;2023-04-25T09:07:20;4.93;;;2.30;;
41661;SDS011;27351;45.992;12.666;2023-04-25T09:09:46;3.97;;;1.88;;
41661;SDS011;27351;45.992;12.666;2023-04-25T09:12:17;4.68;;;1.83;;
41661;SDS011;27351;45.992;12.666;2023-04-25T09:14:43;3.47;;;1.80;;
41661;SDS011;27351;45.992;12.666;2023-04-25T09:17:41;4.57;;;1.70;;
41661;SDS011;27351;45.992;12.666;2023-04-25T09:20:08;3.03;;;1.75;;
41661;SDS011;27351;45.992;12.666;2023-04-25T09:22:34;3.05;;;1.60;;
41661;SDS011;27351;45.992;12.666;2023-04-25T09:25:02;3.30;;;1.60;;
41661;SDS011;27351;45.992;12.666;2023-04-25T09:27:28;2.88;;;1.65;;
41661;SDS011;27351;45.992;12.666;2023-04-25T09:30:02;4.23;;;1.50;;
41661;SDS011;27351;45.992;12.666;2023-04-25T09:32:43;2.40;;;1.35;;
41661;SDS011;27351;45.992;12.666;2023-04-25T09:35:08;2.20;;;1.40;;
41661;SDS011;27351;45.992;12.666;2023-04-25T09:37:35;4.65;;;1.73;;
41661;SDS011;27351;45.992;12.666;2023-04-25T09:40:19;3.30;;;1.50;;
41661;SDS011;27351;45.992;12.666;2023-04-25T09:42:56;3.22;;;1.60;;
41661;SDS011;27351;45.992;12.666;2023-04-25T09:45:24;2.80;;;1.73;;
41661;SDS011;27351;45.992;12.666;2023-04-25T09:47:49;3.13;;;1.87;;
41661;SDS011;27351;45.992;12.666;2023-04-25T09:50:22;2.75;;;1.73;;
41661;SDS011;27351;45.992;12.666;2023-04-25T09:53:03;2.35;;;1.33;;
41661;SDS011;27351;45.992;12.666;2023-04-25T09:55:53;3.35;;;1.48;;
41661;SDS011;27351;45.992;12.666;2023-04-25T09:58:18;2.80;;;1.40;;
41661;SDS011;27351;45.992;12.666;2023-04-25T10:00:45;3.35;;;1.60;;
41661;SDS011;27351;45.992;12.666;2023-04-25T10:03:23;3.47;;;1.83;;
41661;SDS011;27351;45.992;12.666;2023-04-25T10:06:14;3.58;;;2.00;;
41661;SDS011;27351;45.992;12.666;2023-04-25T10:08:43;3.58;;;1.77;;
41661;SDS011;27351;45.992;12.666;2023-04-25T10:11:08;3.92;;;1.80;;
41661;SDS011;27351;45.992;12.666;2023-04-25T10:13:34;3.20;;;1.70;;
41661;SDS011;27351;45.992;12.666;2023-04-25T10:16:01;2.83;;;1.50;;
41661;SDS011;27351;45.992;12.666;2023-04-25T10:18:27;3.05;;;1.60;;
41661;SDS011;27351;45.992;12.666;2023-04-25T10:20:57;3.50;;;1.80;;
41661;SDS011;27351;45.992;12.666;2023-04-25T10:23:23;4.25;;;1.70;;
41661;SDS011;27351;45.992;12.666;2023-04-25T10:25:50;3.80;;;2.00;;
41661;SDS011;27351;45.992;12.666;2023-04-25T10:28:16;6.13;;;3.00;;
41661;SDS011;27351;45.992;12.666;2023-04-25T10:31:01;5.63;;;2.75;;
41661;SDS011;27351;45.992;12.666;2023-04-25T10:36:10;5.65;;;2.70;;
41661;SDS011;27351;45.992;12.666;2023-04-25T10:38:36;7.35;;;3.70;;
41661;SDS011;27351;45.992;12.666;2023-04-25T10:41:05;5.35;;;2.22;;
41661;SDS011;27351;45.992;12.666;2023-04-25T10:43:34;2.92;;;1.50;;
41661;SDS011;27351;45.992;12.666;2023-04-25T10:46:01;2.80;;;1.40;;
41661;SDS011;27351;45.992;12.666;2023-04-25T10:48:27;3.05;;;1.60;;
41661;SDS011;27351;45.992;12.666;2023-04-25T10:51:08;4.32;;;1.60;;
41661;SDS011;27351;45.992;12.666;2023-04-25T10:53:35;7.45;;;2.60;;
41661;SDS011;27351;45.992;12.666;2023-04-25T10:56:08;2.00;;;1.27;;
41661;SDS011;27351;45.992;12.666;2023-04-25T10:58:34;1.70;;;1.02;;
41661;SDS011;27351;45.992;12.666;2023-04-25T11:01:00;2.43;;;1.23;;
41661;SDS011;27351;45.992;12.666;2023-04-25T11:03:26;1.60;;;1.20;;
41661;SDS011;27351;45.992;12.666;2023-04-25T11:05:52;2.77;;;1.40;;
41661;SDS011;27351;45.992;12.666;2023-04-25T11:08:19;1.73;;;1.10;;
41661;SDS011;27351;45.992;12.666;2023-04-25T11:10:49;1.20;;;0.70;;
41661;SDS011;27351;45.992;12.666;2023-04-25T11:13:15;1.55;;;1.00;;
41661;SDS011;27351;45.992;12.666;2023-04-25T11:15:40;1.67;;;0.80;;
41661;SDS011;27351;45.992;12.666;2023-04-25T11:18:06;1.10;;;0.65;;
41661;SDS011;27351;45.992;12.666;2023-04-25T11:20:32;1.20;;;0.80;;
41661;SDS011;27351;45.992;12.666;2023-04-25T11:22:57;0.70;;;0.50;;
41661;SDS011;27351;45.992;12.666;2023-04-25T11:25:25;1.50;;;0.70;;
41661;SDS011;27351;45.992;12.666;2023-04-25T11:27:51;1.05;;;0.60;;
41661;SDS011;27351;45.992;12.666;2023-04-25T11:30:17;1.85;;;0.70;;
41661;SDS011;27351;45.992;12.666;2023-04-25T11:32:43;2.50;;;0.95;;
41661;SDS011;27351;45.992;12.666;2023-04-25T11:35:09;0.88;;;0.70;;
41661;SDS011;27351;45.992;12.666;2023-04-25T11:37:34;1.05;;;0.60;;
41661;SDS011;27351;45.992;12.666;2023-04-25T11:40:00;1.40;;;0.40;;
41661;SDS011;27351;45.992;12.666;2023-04-25T11:42:26;0.63;;;0.50;;
41661;SDS011;27351;45.992;12.666;2023-04-25T11:44:51;1.73;;;0.80;;
41661;SDS011;27351;45.992;12.666;2023-04-25T11:47:17;1.80;;;0.73;;
41661;SDS011;27351;45.992;12.666;2023-04-25T11:49:43;0.97;;;0.70;;
41661;SDS011;27351;45.992;12.666;2023-04-25T11:52:08;1.07;;;0.67;;
41661;SDS011;27351;45.992;12.666;2023-04-25T11:54:37;1.55;;;0.60;;
41661;SDS011;27351;45.992;12.666;2023-04-25T11:57:03;0.80;;;0.50;;
41661;SDS011;27351;45.992;12.666;2023-04-25T11:59:29;1.40;;;0.57;;
41661;SDS011;27351;45.992;12.666;2023-04-25T12:01:55;1.20;;;0.50;;
41661;SDS011;27351;45.992;12.666;2023-04-25T12:04:23;0.80;;;0.50;;
41661;SDS011;27351;45.992;12.666;2023-04-25T12:06:50;0.95;;;0.47;;
41661;SDS011;27351;45.992;12.666;2023-04-25T12:09:17;1.05;;;0.55;;
41661;SDS011;27351;45.992;12.666;2023-04-25T12:14:09;0.50;;;0.40;;
41661;SDS011;27351;45.992;12.666;2023-04-25T12:16:44;4.77;;;0.90;;
41661;SDS011;27351;45.992;12.666;2023-04-25T12:19:13;3.95;;;0.60;;
41661;SDS011;27351;45.992;12.666;2023-04-25T12:21:39;46.88;;;7.03;;
41661;SDS011;27351;45.992;12.666;2023-04-25T12:24:15;4.63;;;0.77;;
41661;SDS011;27351;45.992;12.666;2023-04-25T12:26:48;2.00;;;0.50;;
41661;SDS011;27351;45.992;12.666;2023-04-25T12:29:17;1.65;;;0.50;;
41661;SDS011;27351;45.992;12.666;2023-04-25T12:31:43;0.80;;;0.40;;
41661;SDS011;27351;45.992;12.666;2023-04-25T12:34:09;1.60;;;0.60;;
41661;SDS011;27351;45.992;12.666;2023-04-25T12:36:34;0.50;;;0.40;;
41661;SDS011;27351;45.992;12.666;2023-04-25T12:39:00;0.90;;;0.40;;
41661;SDS011;27351;45.992;12.666;2023-04-25T12:41:29;0.82;;;0.45;;
41661;SDS011;27351;45.992;12.666;2023-04-25T12:43:55;0.50;;;0.40;;
41661;SDS011;27351;45.992;12.666;2023-04-25T12:46:21;0.32;;;0.30;;
41661;SDS011;27351;45.992;12.666;2023-04-25T12:48:48;0.40;;;0.40;;
41661;SDS011;27351;45.992;12.666;2023-04-25T12:51:14;0.30;;;0.30;;
41661;SDS011;27351;45.992;12.666;2023-04-25T12:53:40;0.70;;;0.40;;
41661;SDS011;27351;45.992;12.666;2023-04-25T12:56:06;0.80;;;0.47;;
41661;SDS011;27351;45.992;12.666;2023-04-25T12:58:32;0.50;;;0.32;;
41661;SDS011;27351;45.992;12.666;2023-04-25T13:00:59;0.98;;;0.50;;
41661;SDS011;27351;45.992;12.666;2023-04-25T13:03:24;0.87;;;0.40;;
41661;SDS011;27351;45.992;12.666;2023-04-25T13:05:50;0.80;;;0.40;;
41661;SDS011;27351;45.992;12.666;2023-04-25T13:08:18;0.80;;;0.40;;
41661;SDS011;27351;45.992;12.666;2023-04-25T13:10:43;0.82;;;0.40;;
41661;SDS011;27351;45.992;12.666;2023-04-25T13:13:09;0.88;;;0.47;;
41661;SDS011;27351;45.992;12.666;2023-04-25T13:15:34;1.48;;;0.30;;
41661;SDS011;27351;45.992;12.666;2023-04-25T13:18:00;2.60;;;0.40;;
41661;SDS011;27351;45.992;12.666;2023-04-25T13:20:26;0.40;;;0.40;;
41661;SDS011;27351;45.992;12.666;2023-04-25T13:22:51;1.57;;;0.43;;
41661;SDS011;27351;45.992;12.666;2023-04-25T13:25:17;1.10;;;0.50;;
41661;SDS011;27351;45.992;12.666;2023-04-25T13:27:43;1.02;;;0.45;;
41661;SDS011;27351;45.992;12.666;2023-04-25T13:30:09;1.50;;;0.35;;
41661;SDS011;27351;45.992;12.666;2023-04-25T13:32:36;0.40;;;0.20;;
41661;SDS011;27351;45.992;12.666;2023-04-25T13:35:02;1.00;;;0.40;;
41661;SDS011;27351;45.992;12.666;2023-04-25T13:37:28;1.67;;;0.47;;
41661;SDS011;27351;45.992;12.666;2023-04-25T13:39:55;5.07;;;0.40;;
41661;SDS011;27351;45.992;12.666;2023-04-25T13:42:22;0.75;;;0.40;;
41661;SDS011;27351;45.992;12.666;2023-04-25T13:44:48;1.30;;;0.50;;
41661;SDS011;27351;45.992;12.666;2023-04-25T13:47:14;2.00;;;0.43;;
41661;SDS011;27351;45.992;12.666;2023-04-25T13:49:39;0.88;;;0.30;;
41661;SDS011;27351;45.992;12.666;2023-04-25T13:52:05;0.70;;;0.40;;
41661;SDS011;27351;45.992;12.666;2023-04-25T13:54:31;1.35;;;0.50;;
41661;SDS011;27351;45.992;12.666;2023-04-25T13:56:56;0.73;;;0.50;;
41661;SDS011;27351;45.992;12.666;2023-04-25T13:59:24;0.88;;;0.40;;
41661;SDS011;27351;45.992;12.666;2023-04-25T14:01:51;1.50;;;0.38;;
41661;SDS011;27351;45.992;12.666;2023-04-25T14:04:17;0.50;;;0.30;;
41661;SDS011;27351;45.992;12.666;2023-04-25T14:06:42;1.30;;;0.40;;
41661;SDS011;27351;45.992;12.666;2023-04-25T14:09:08;0.47;;;0.20;;
41661;SDS011;27351;45.992;12.666;2023-04-25T14:11:36;1.00;;;0.30;;
41661;SDS011;27351;45.992;12.666;2023-04-25T14:14:01;0.65;;;0.40;;
41661;SDS011;27351;45.992;12.666;2023-04-25T14:16:27;0.60;;;0.37;;
41661;SDS011;27351;45.992;12.666;2023-04-25T14:18:53;2.22;;;0.30;;
41661;SDS011;27351;45.992;12.666;2023-04-25T14:21:19;0.70;;;0.40;;
41661;SDS011;27351;45.992;12.666;2023-04-25T14:23:46;0.77;;;0.40;;
41661;SDS011;27351;45.992;12.666;2023-04-25T14:26:12;0.50;;;0.40;;
41661;SDS011;27351;45.992;12.666;2023-04-25T14:28:38;0.50;;;0.40;;
41661;SDS011;27351;45.992;12.666;2023-04-25T14:31:03;0.20;;;0.20;;
41661;SDS011;27351;45.992;12.666;2023-04-25T14:33:29;1.05;;;0.45;;
41661;SDS011;27351;45.992;12.666;2023-04-25T14:35:56;0.40;;;0.30;;
41661;SDS011;27351;45.992;12.666;2023-04-25T14:38:21;1.50;;;0.50;;
41661;SDS011;27351;45.992;12.666;2023-04-25T14:40:49;0.60;;;0.40;;
41661;SDS011;27351;45.992;12.666;2023-04-25T14:43:14;1.73;;;0.82;;
41661;SDS011;27351;45.992;12.666;2023-04-25T14:45:40;1.40;;;0.40;;
41661;SDS011;27351;45.992;12.666;2023-04-25T14:48:05;0.50;;;0.40;;
41661;SDS011;27351;45.992;12.666;2023-04-25T14:50:32;0.65;;;0.40;;